Time,TemperatureF,DewpointF,PressureIn,WindDirection,WindDirectionDegrees,WindSpeedMPH,WindSpeedGustMPH,Humidity,HourlyPrecipIn,Conditions,Clouds,dailyrainin,SoftwareType,DateUTC
2013-04-01 00:00:00,49.7,47.2,29.73,SW,225,3.8,7.6,91,0.00,,,0.33,WUHU216HW,2013-04-01 04:00:00,
2013-04-01 00:05:00,49.7,47.2,29.73,NW,315,4.0,8.7,91,0.00,,,0.33,WUHU216HW,2013-04-01 04:05:00,
2013-04-01 00:10:00,49.7,47.2,29.73,NW,315,2.2,8.7,91,0.00,,,0.33,WUHU216HW,2013-04-01 04:10:00,
2013-04-01 00:13:00,49.7,47.2,29.73,SSW,203,1.3,6.3,91,0.00,,,0.33,WUHU216HW,2013-04-01 04:13:00,
2013-04-01 00:18:00,49.7,47.2,29.73,SW,225,2.9,5.4,91,0.00,,,0.33,WUHU216HW,2013-04-01 04:18:00,
2013-04-01 00:23:00,49.7,47.2,29.73,SW,225,3.4,6.7,91,0.00,,,0.33,WUHU216HW,2013-04-01 04:23:00,
2013-04-01 00:28:00,49.7,47.2,29.73,SW,225,2.9,6.7,91,0.00,,,0.33,WUHU216HW,2013-04-01 04:28:00,
2013-04-01 00:33:00,49.7,47.2,29.73,SW,225,4.0,7.4,91,0.00,,,0.33,WUHU216HW,2013-04-01 04:33:00,
2013-04-01 00:38:00,49.7,46.8,29.73,WSW,248,2.5,7.4,90,0.00,,,0.33,WUHU216HW,2013-04-01 04:38:00,
2013-04-01 00:43:00,49.7,46.8,29.74,West,270,1.1,6.7,90,0.00,,,0.33,WUHU216HW,2013-04-01 04:43:00,
2013-04-01 00:48:00,49.5,46.7,29.74,NNW,338,1.8,6.7,90,0.00,,,0.33,WUHU216HW,2013-04-01 04:48:00,
2013-04-01 00:53:00,49.5,46.7,29.75,NNW,338,2.2,4.9,90,0.00,,,0.33,WUHU216HW,2013-04-01 04:53:00,
2013-04-01 00:58:00,49.5,46.7,29.74,ESE,113,3.4,6.7,90,0.00,,,0.33,WUHU216HW,2013-04-01 04:58:00,
2013-04-01 01:03:00,49.5,46.4,29.74,SW,225,1.1,6.7,89,0.00,,,0.00,WUHU216HW,2013-04-01 05:03:00,
2013-04-01 01:08:00,49.5,46.4,29.74,South,180,2.5,6.7,89,0.00,,,0.00,WUHU216HW,2013-04-01 05:08:00,
2013-04-01 01:13:00,49.3,46.2,29.75,SW,225,3.4,5.8,89,0.00,,,0.00,WUHU216HW,2013-04-01 05:13:00,
2013-04-01 01:18:00,49.3,45.9,29.74,West,270,1.3,7.8,88,0.00,,,0.00,WUHU216HW,2013-04-01 05:18:00,
2013-04-01 01:23:00,49.1,45.7,29.74,WNW,293,1.1,7.8,88,0.00,,,0.00,WUHU216HW,2013-04-01 05:23:00,
2013-04-01 01:28:00,49.0,45.5,29.74,NW,315,5.1,6.3,88,0.00,,,0.00,WUHU216HW,2013-04-01 05:28:00,
2013-04-01 01:33:00,48.8,45.4,29.74,NW,315,1.6,5.1,88,0.00,,,0.00,WUHU216HW,2013-04-01 05:33:00,
2013-04-01 01:38:00,48.6,45.2,29.74,SSW,203,2.5,5.1,88,0.00,,,0.00,WUHU216HW,2013-04-01 05:38:00,
2013-04-01 01:43:00,48.6,45.2,29.74,SW,225,1.1,5.1,88,0.00,,,0.00,WUHU216HW,2013-04-01 05:43:00,
2013-04-01 01:48:00,48.4,45.1,29.74,SW,225,2.5,5.1,88,0.00,,,0.00,WUHU216HW,2013-04-01 05:48:00,
2013-04-01 01:53:00,48.2,44.9,29.74,NNW,338,2.5,4.0,88,0.00,,,0.00,WUHU216HW,2013-04-01 05:53:00,
2013-04-01 01:58:00,48.2,44.9,29.74,SW,225,0.2,4.0,88,0.00,,,0.00,WUHU216HW,2013-04-01 05:58:00,
2013-04-01 02:03:00,48.2,44.9,29.74,SW,225,1.8,4.0,88,0.00,,,0.00,WUHU216HW,2013-04-01 06:03:00,
2013-04-01 02:08:00,48.1,44.7,29.74,SW,225,1.8,2.9,88,0.00,,,0.00,WUHU216HW,2013-04-01 06:08:00,
2013-04-01 02:13:00,48.1,45.0,29.74,West,270,3.6,4.0,89,0.00,,,0.00,WUHU216HW,2013-04-01 06:13:00,
2013-04-01 02:18:00,48.1,45.0,29.74,West,270,3.1,4.0,89,0.00,,,0.00,WUHU216HW,2013-04-01 06:18:00,
2013-04-01 02:23:00,47.9,44.8,29.74,WSW,248,3.4,4.5,89,0.00,,,0.00,WUHU216HW,2013-04-01 06:23:00,
2013-04-01 02:28:00,47.9,44.8,29.74,SW,225,1.6,4.5,89,0.00,,,0.00,WUHU216HW,2013-04-01 06:28:00,
2013-04-01 02:33:00,47.7,44.6,29.74,NNW,338,1.6,4.0,89,0.00,,,0.00,WUHU216HW,2013-04-01 06:33:00,
2013-04-01 02:38:00,47.5,44.5,29.74,West,270,1.3,4.0,89,0.00,,,0.00,WUHU216HW,2013-04-01 06:38:00,
2013-04-01 02:43:00,47.5,44.8,29.75,SW,225,2.0,4.9,90,0.00,,,0.00,WUHU216HW,2013-04-01 06:43:00,
2013-04-01 02:48:00,47.3,44.6,29.75,West,270,2.5,4.9,90,0.00,,,0.00,WUHU216HW,2013-04-01 06:48:00,
2013-04-01 02:53:00,47.2,44.5,29.74,SW,225,1.3,3.8,90,0.00,,,0.00,WUHU216HW,2013-04-01 06:53:00,
2013-04-01 02:58:00,47.0,44.3,29.74,West,270,1.6,1.8,90,0.00,,,0.00,WUHU216HW,2013-04-01 06:58:00,
2013-04-01 03:03:00,46.8,44.1,29.74,SSW,203,1.6,2.7,90,0.00,,,0.00,WUHU216HW,2013-04-01 07:03:00,
2013-04-01 03:08:00,46.8,44.1,29.75,SW,225,1.1,3.4,90,0.00,,,0.00,WUHU216HW,2013-04-01 07:08:00,
2013-04-01 03:13:00,46.6,43.9,29.75,South,180,1.6,3.4,90,0.00,,,0.00,WUHU216HW,2013-04-01 07:13:00,
2013-04-01 03:19:00,46.6,43.9,29.75,WSW,248,2.9,2.9,90,0.00,,,0.00,WUHU216HW,2013-04-01 07:19:00,
2013-04-01 03:24:00,46.4,43.7,29.74,SW,225,2.5,2.9,90,0.00,,,0.00,WUHU216HW,2013-04-01 07:24:00,
2013-04-01 03:29:00,46.4,43.7,29.75,WSW,248,0.4,2.9,90,0.00,,,0.00,WUHU216HW,2013-04-01 07:29:00,
2013-04-01 03:34:00,46.1,43.4,29.75,WSW,248,2.2,3.4,90,0.00,,,0.00,WUHU216HW,2013-04-01 07:34:00,
2013-04-01 03:39:00,46.1,43.4,29.75,SSW,203,1.8,3.4,90,0.00,,,0.00,WUHU216HW,2013-04-01 07:39:00,
2013-04-01 03:44:00,46.1,43.7,29.75,SW,225,2.0,5.6,91,0.00,,,0.00,WUHU216HW,2013-04-01 07:44:00,
2013-04-01 03:49:00,46.1,43.7,29.75,SW,225,2.5,5.6,91,0.00,,,0.00,WUHU216HW,2013-04-01 07:49:00,
2013-04-01 03:54:00,46.1,43.7,29.75,North,0,0.9,5.1,91,0.00,,,0.00,WUHU216HW,2013-04-01 07:54:00,
2013-04-01 03:59:00,46.1,43.7,29.75,WSW,248,0.4,5.1,91,0.00,,,0.00,WUHU216HW,2013-04-01 07:59:00,
2013-04-01 04:04:00,45.9,43.5,29.74,WNW,293,0.0,1.8,91,0.00,,,0.00,WUHU216HW,2013-04-01 08:04:00,
2013-04-01 04:09:00,45.7,43.3,29.74,West,270,1.6,3.4,91,0.00,,,0.00,WUHU216HW,2013-04-01 08:09:00,
2013-04-01 04:14:00,45.9,43.5,29.74,NNE,23,0.7,3.4,91,0.00,,,0.00,WUHU216HW,2013-04-01 08:14:00,
2013-04-01 04:19:00,45.7,43.6,29.74,SW,225,3.1,3.1,92,0.00,,,0.00,WUHU216HW,2013-04-01 08:19:00,
2013-04-01 04:24:00,45.7,43.3,29.75,SW,225,2.2,3.1,91,0.00,,,0.00,WUHU216HW,2013-04-01 08:24:00,
2013-04-01 04:29:00,45.7,43.3,29.75,South,180,1.1,3.8,91,0.00,,,0.00,WUHU216HW,2013-04-01 08:29:00,
2013-04-01 04:34:00,45.7,43.3,29.75,WSW,248,2.0,5.4,91,0.00,,,0.00,WUHU216HW,2013-04-01 08:34:00,
2013-04-01 04:39:00,45.7,43.3,29.75,SSW,203,1.8,5.4,91,0.00,,,0.00,WUHU216HW,2013-04-01 08:39:00,
2013-04-01 04:44:00,45.7,43.3,29.75,WSW,248,5.1,5.4,91,0.00,,,0.00,WUHU216HW,2013-04-01 08:44:00,
2013-04-01 04:49:00,45.7,43.3,29.75,SW,225,4.0,5.4,91,0.00,,,0.00,WUHU216HW,2013-04-01 08:49:00,
2013-04-01 04:54:00,45.7,43.3,29.76,WSW,248,2.9,5.4,91,0.00,,,0.00,WUHU216HW,2013-04-01 08:54:00,
2013-04-01 04:59:00,45.5,43.1,29.76,SW,225,0.7,4.0,91,0.00,,,0.00,WUHU216HW,2013-04-01 08:59:00,
2013-04-01 05:04:00,45.4,42.9,29.75,WSW,248,1.3,3.1,91,0.00,,,0.00,WUHU216HW,2013-04-01 09:04:00,
2013-04-01 05:09:00,45.2,42.8,29.75,SW,225,1.6,2.9,91,0.00,,,0.00,WUHU216HW,2013-04-01 09:09:00,
2013-04-01 05:14:00,45.0,42.6,29.75,SW,225,2.0,2.9,91,0.00,,,0.00,WUHU216HW,2013-04-01 09:14:00,
2013-04-01 05:19:00,45.0,42.6,29.75,SW,225,1.1,4.0,91,0.00,,,0.00,WUHU216HW,2013-04-01 09:19:00,
2013-04-01 05:24:00,45.0,42.6,29.76,WNW,293,3.4,4.0,91,0.00,,,0.00,WUHU216HW,2013-04-01 09:24:00,
2013-04-01 05:29:00,45.0,42.6,29.76,WSW,248,2.0,3.8,91,0.00,,,0.00,WUHU216HW,2013-04-01 09:29:00,
2013-04-01 05:34:00,45.0,42.6,29.76,SW,225,2.0,3.4,91,0.00,,,0.00,WUHU216HW,2013-04-01 09:34:00,
2013-04-01 05:39:00,44.8,42.4,29.75,South,180,0.0,3.4,91,0.00,,,0.00,WUHU216HW,2013-04-01 09:39:00,
2013-04-01 05:44:00,44.6,42.2,29.75,WSW,248,0.7,2.2,91,0.00,,,0.00,WUHU216HW,2013-04-01 09:44:00,
2013-04-01 05:49:00,44.5,41.8,29.75,SW,225,0.0,1.6,90,0.00,,,0.00,WUHU216HW,2013-04-01 09:49:00,
2013-04-01 05:54:00,44.3,41.6,29.75,SSW,203,1.8,1.8,90,0.00,,,0.00,WUHU216HW,2013-04-01 09:54:00,
2013-04-01 05:59:00,44.1,41.4,29.75,SSW,203,1.1,2.7,90,0.00,,,0.00,WUHU216HW,2013-04-01 09:59:00,
2013-04-01 06:04:00,44.1,41.4,29.76,WSW,248,1.1,2.7,90,0.00,,,0.00,WUHU216HW,2013-04-01 10:04:00,
2013-04-01 06:09:00,43.9,41.2,29.76,SSW,203,0.2,2.5,90,0.00,,,0.00,WUHU216HW,2013-04-01 10:09:00,
2013-04-01 06:14:00,43.7,41.0,29.76,SSW,203,1.1,1.6,90,0.00,,,0.00,WUHU216HW,2013-04-01 10:14:00,
2013-04-01 06:19:00,43.6,40.9,29.76,South,180,1.1,1.8,90,0.00,,,0.00,WUHU216HW,2013-04-01 10:19:00,
2013-04-01 06:24:00,43.6,40.9,29.76,SW,225,2.5,3.1,90,0.00,,,0.00,WUHU216HW,2013-04-01 10:24:00,
2013-04-01 06:29:00,43.7,41.0,29.75,WSW,248,1.6,3.4,90,0.00,,,0.00,WUHU216HW,2013-04-01 10:29:00,
2013-04-01 06:34:00,43.9,41.2,29.76,WSW,248,1.3,3.4,90,0.00,,,0.00,WUHU216HW,2013-04-01 10:34:00,
2013-04-01 06:39:00,43.9,41.5,29.75,WSW,248,2.2,3.6,91,0.00,,,0.00,WUHU216HW,2013-04-01 10:39:00,
2013-04-01 06:44:00,44.1,41.7,29.75,NW,315,2.5,4.0,91,0.00,,,0.00,WUHU216HW,2013-04-01 10:44:00,
2013-04-01 06:49:00,44.3,41.9,29.76,WSW,248,2.7,4.9,91,0.00,,,0.00,WUHU216HW,2013-04-01 10:49:00,
2013-04-01 06:54:00,44.3,41.9,29.76,WSW,248,1.1,4.9,91,0.00,,,0.00,WUHU216HW,2013-04-01 10:54:00,
2013-04-01 06:59:00,44.3,41.9,29.75,SW,225,1.6,4.3,91,0.00,,,0.00,WUHU216HW,2013-04-01 10:59:00,
2013-04-01 07:04:00,44.5,42.0,29.75,WSW,248,1.3,4.9,91,0.00,,,0.00,WUHU216HW,2013-04-01 11:04:00,
2013-04-01 07:09:00,44.5,42.3,29.75,SSW,203,3.1,4.9,92,0.00,,,0.00,WUHU216HW,2013-04-01 11:09:00,
2013-04-01 07:14:00,44.5,42.3,29.75,SSW,203,1.8,4.7,92,0.00,,,0.00,WUHU216HW,2013-04-01 11:14:00,
2013-04-01 07:19:00,44.5,42.3,29.75,SW,225,2.9,5.6,92,0.00,,,0.00,WUHU216HW,2013-04-01 11:19:00,
2013-04-01 07:24:00,44.3,42.1,29.75,WSW,248,1.6,5.6,92,0.00,,,0.00,WUHU216HW,2013-04-01 11:24:00,
2013-04-01 07:29:00,44.3,42.1,29.75,WSW,248,2.2,4.7,92,0.00,,,0.00,WUHU216HW,2013-04-01 11:29:00,
2013-04-01 07:34:00,44.5,42.3,29.75,WSW,248,3.1,3.1,92,0.00,,,0.00,WUHU216HW,2013-04-01 11:34:00,
2013-04-01 07:39:00,44.5,42.3,29.75,SSW,203,0.0,3.4,92,0.00,,,0.00,WUHU216HW,2013-04-01 11:39:00,
2013-04-01 07:44:00,44.5,42.3,29.75,WSW,248,1.3,3.4,92,0.00,,,0.00,WUHU216HW,2013-04-01 11:44:00,
2013-04-01 07:49:00,44.5,42.3,29.75,West,270,1.8,3.4,92,0.00,,,0.00,WUHU216HW,2013-04-01 11:49:00,
2013-04-01 07:54:00,44.6,42.5,29.75,SSW,203,0.7,3.4,92,0.00,,,0.00,WUHU216HW,2013-04-01 11:54:00,
2013-04-01 07:59:00,45.0,42.8,29.75,South,180,0.0,2.0,92,0.00,,,0.00,WUHU216HW,2013-04-01 11:59:00,
2013-04-01 08:04:00,45.4,43.2,29.75,SE,135,0.9,2.2,92,0.00,,,0.00,WUHU216HW,2013-04-01 12:04:00,
2013-04-01 08:09:00,45.5,43.4,29.75,SSW,203,0.0,2.2,92,0.00,,,0.00,WUHU216HW,2013-04-01 12:09:00,
2013-04-01 08:14:00,46.1,44.2,29.75,SSW,203,0.0,0.9,93,0.00,,,0.00,WUHU216HW,2013-04-01 12:14:00,
2013-04-01 08:19:00,46.4,44.6,29.76,SSW,203,2.5,3.1,93,0.00,,,0.00,WUHU216HW,2013-04-01 12:19:00,
2013-04-01 08:24:00,46.8,44.9,29.76,SW,225,1.1,3.1,93,0.00,,,0.00,WUHU216HW,2013-04-01 12:24:00,
2013-04-01 08:29:00,47.0,45.1,29.77,WSW,248,0.4,4.0,93,0.00,,,0.00,WUHU216HW,2013-04-01 12:29:00,
2013-04-01 08:34:00,47.2,45.3,29.77,West,270,2.9,4.7,93,0.00,,,0.00,WUHU216HW,2013-04-01 12:34:00,
2013-04-01 08:39:00,47.2,45.3,29.77,SSW,203,2.5,5.4,93,0.00,,,0.00,WUHU216HW,2013-04-01 12:39:00,
2013-04-01 08:44:00,47.7,45.8,29.77,WSW,248,3.4,6.3,93,0.00,,,0.00,WUHU216HW,2013-04-01 12:44:00,
2013-04-01 08:49:00,48.1,45.9,29.77,WSW,248,4.0,6.3,92,0.00,,,0.00,WUHU216HW,2013-04-01 12:49:00,
2013-04-01 08:54:00,48.4,46.0,29.76,WSW,248,6.9,8.3,91,0.00,,,0.00,WUHU216HW,2013-04-01 12:54:00,
2013-04-01 08:59:00,49.0,46.2,29.76,WSW,248,7.4,8.3,90,0.00,,,0.00,WUHU216HW,2013-04-01 12:59:00,
2013-04-01 09:04:00,49.1,46.1,29.77,SSW,203,3.4,7.4,89,0.00,,,0.00,WUHU216HW,2013-04-01 13:04:00,
2013-04-01 09:09:00,49.5,45.7,29.77,SSW,203,6.3,8.5,87,0.00,,,0.00,WUHU216HW,2013-04-01 13:09:00,
2013-04-01 09:14:00,49.9,46.1,29.77,SW,225,4.0,8.5,87,0.00,,,0.00,WUHU216HW,2013-04-01 13:14:00,
2013-04-01 09:19:00,50.0,45.9,29.77,SW,225,3.6,7.6,86,0.00,,,0.00,WUHU216HW,2013-04-01 13:19:00,
2013-04-01 09:24:00,50.4,46.3,29.77,WSW,248,3.4,7.6,86,0.00,,,0.00,WUHU216HW,2013-04-01 13:24:00,
2013-04-01 09:29:00,50.9,46.8,29.77,SSW,203,4.7,6.9,86,0.00,,,0.00,WUHU216HW,2013-04-01 13:29:00,
2013-04-01 09:34:00,51.3,47.2,29.77,SW,225,1.8,5.1,86,0.00,,,0.00,WUHU216HW,2013-04-01 13:34:00,
2013-04-01 09:39:00,51.8,47.7,29.77,SW,225,1.1,4.9,86,0.00,,,0.00,WUHU216HW,2013-04-01 13:39:00,
2013-04-01 09:44:00,52.0,47.6,29.77,SW,225,2.9,3.4,85,0.00,,,0.00,WUHU216HW,2013-04-01 13:44:00,
2013-04-01 09:49:00,52.6,47.9,29.77,WSW,248,2.5,3.4,84,0.00,,,0.00,WUHU216HW,2013-04-01 13:49:00,
2013-04-01 09:54:00,52.7,47.7,29.77,SSW,203,2.0,4.0,83,0.00,,,0.00,WUHU216HW,2013-04-01 13:54:00,
2013-04-01 09:59:00,52.7,47.4,29.77,SSE,158,4.9,4.9,82,0.00,,,0.00,WUHU216HW,2013-04-01 13:59:00,
2013-04-01 10:04:00,52.4,47.1,29.77,SSW,203,2.5,4.9,82,0.00,,,0.00,WUHU216HW,2013-04-01 14:04:00,
2013-04-01 10:09:00,52.2,46.5,29.76,SW,225,1.6,3.6,81,0.00,,,0.00,WUHU216HW,2013-04-01 14:09:00,
2013-04-01 10:14:00,52.4,47.1,29.76,SSW,203,1.3,3.6,82,0.00,,,0.00,WUHU216HW,2013-04-01 14:14:00,
2013-04-01 10:19:00,52.7,47.1,29.76,SSW,203,2.0,3.4,81,0.00,,,0.00,WUHU216HW,2013-04-01 14:19:00,
2013-04-01 10:24:00,52.9,47.0,29.76,SSW,203,1.8,4.3,80,0.00,,,0.00,WUHU216HW,2013-04-01 14:24:00,
2013-04-01 10:29:00,53.6,47.7,29.75,WSW,248,3.1,4.3,80,0.00,,,0.00,WUHU216HW,2013-04-01 14:29:00,
2013-04-01 10:34:00,54.7,48.3,29.75,SW,225,2.9,6.3,79,0.00,,,0.00,WUHU216HW,2013-04-01 14:34:00,
2013-04-01 10:39:00,55.6,49.1,29.75,South,180,1.1,7.8,79,0.00,,,0.00,WUHU216HW,2013-04-01 14:39:00,
2013-04-01 10:44:00,56.3,49.5,29.75,South,180,2.0,7.8,78,0.00,,,0.00,WUHU216HW,2013-04-01 14:44:00,
2013-04-01 10:49:00,56.9,49.0,29.75,SW,225,4.3,4.3,75,0.00,,,0.00,WUHU216HW,2013-04-01 14:49:00,
2013-04-01 10:54:00,57.6,49.7,29.74,SW,225,3.4,4.7,75,0.00,,,0.00,WUHU216HW,2013-04-01 14:54:00,
2013-04-01 10:59:00,58.3,49.7,29.75,WSW,248,2.5,4.7,73,0.00,,,0.00,WUHU216HW,2013-04-01 14:59:00,
2013-04-01 11:04:00,57.6,48.6,29.75,SSW,203,1.8,4.3,72,0.00,,,0.00,WUHU216HW,2013-04-01 15:04:00,
2013-04-01 11:09:00,57.1,48.1,29.75,SSE,158,2.2,4.7,72,0.00,,,0.00,WUHU216HW,2013-04-01 15:09:00,
2013-04-01 11:14:00,56.5,47.3,29.75,WSW,248,3.4,5.4,71,0.00,,,0.00,WUHU216HW,2013-04-01 15:14:00,
2013-04-01 11:19:00,56.0,46.7,29.75,SW,225,3.4,5.6,71,0.00,,,0.00,WUHU216HW,2013-04-01 15:19:00,
2013-04-01 11:24:00,55.8,47.3,29.74,SW,225,3.6,5.6,73,0.00,,,0.00,WUHU216HW,2013-04-01 15:24:00,
2013-04-01 11:29:00,55.8,46.9,29.74,SW,225,2.9,6.3,72,0.00,,,0.00,WUHU216HW,2013-04-01 15:29:00,
2013-04-01 11:34:00,56.2,47.3,29.74,SW,225,2.0,6.3,72,0.00,,,0.00,WUHU216HW,2013-04-01 15:34:00,
2013-04-01 11:39:00,56.5,47.3,29.74,South,180,1.8,5.1,71,0.00,,,0.00,WUHU216HW,2013-04-01 15:39:00,
2013-04-01 11:44:00,56.5,46.9,29.74,SW,225,3.8,5.6,70,0.00,,,0.00,WUHU216HW,2013-04-01 15:44:00,
2013-04-01 11:49:00,56.3,46.7,29.74,WSW,248,3.4,5.6,70,0.00,,,0.00,WUHU216HW,2013-04-01 15:49:00,
2013-04-01 11:54:00,56.2,46.2,29.73,SSE,158,4.7,4.7,69,0.00,,,0.00,WUHU216HW,2013-04-01 15:54:00,
2013-04-01 11:59:00,55.8,46.3,29.74,SW,225,3.6,4.9,70,0.00,,,0.00,WUHU216HW,2013-04-01 15:59:00,
2013-04-01 12:04:00,55.8,46.5,29.74,SW,225,1.8,5.8,71,0.00,,,0.00,WUHU216HW,2013-04-01 16:04:00,
2013-04-01 12:09:00,56.2,46.5,29.73,WSW,248,3.4,5.8,70,0.00,,,0.00,WUHU216HW,2013-04-01 16:09:00,
2013-04-01 12:14:00,56.3,46.7,29.73,SSE,158,6.7,6.7,70,0.00,,,0.00,WUHU216HW,2013-04-01 16:14:00,
2013-04-01 12:19:00,56.2,46.5,29.73,SE,135,4.7,6.7,70,0.00,,,0.00,WUHU216HW,2013-04-01 16:19:00,
2013-04-01 12:24:00,56.3,46.7,29.73,SSW,203,3.4,8.7,70,0.00,,,0.00,WUHU216HW,2013-04-01 16:24:00,
2013-04-01 12:29:00,56.2,46.5,29.73,SSE,158,3.1,8.7,70,0.00,,,0.00,WUHU216HW,2013-04-01 16:29:00,
2013-04-01 12:34:00,56.3,46.7,29.72,WSW,248,3.4,7.2,70,0.00,,,0.00,WUHU216HW,2013-04-01 16:34:00,
2013-04-01 12:39:00,56.5,46.4,29.71,South,180,6.9,6.9,69,0.00,,,0.00,WUHU216HW,2013-04-01 16:39:00,
2013-04-01 12:44:00,56.3,46.3,29.70,SSW,203,5.6,6.9,69,0.00,,,0.00,WUHU216HW,2013-04-01 16:44:00,
2013-04-01 12:49:00,56.7,46.6,29.70,SW,225,3.8,8.1,69,0.00,,,0.00,WUHU216HW,2013-04-01 16:49:00,
2013-04-01 12:54:00,56.9,46.8,29.70,SSW,203,4.3,8.1,69,0.00,,,0.00,WUHU216HW,2013-04-01 16:54:00,
2013-04-01 12:59:00,56.7,46.6,29.70,SE,135,2.5,6.3,69,0.00,,,0.00,WUHU216HW,2013-04-01 16:59:00,
2013-04-01 13:04:00,56.3,46.3,29.70,WSW,248,2.0,11.0,69,0.00,,,0.00,WUHU216HW,2013-04-01 17:04:00,
2013-04-01 13:09:00,56.0,46.0,29.69,SSW,203,2.5,11.0,69,0.00,,,0.00,WUHU216HW,2013-04-01 17:09:00,
2013-04-01 13:14:00,55.6,46.1,29.69,SW,225,3.6,6.9,70,0.00,,,0.00,WUHU216HW,2013-04-01 17:14:00,
2013-04-01 13:19:00,55.8,46.3,29.69,NW,315,4.3,8.5,70,0.00,,,0.00,WUHU216HW,2013-04-01 17:19:00,
2013-04-01 13:24:00,56.5,46.4,29.69,WNW,293,2.9,8.5,69,0.00,,,0.00,WUHU216HW,2013-04-01 17:24:00,
2013-04-01 13:29:00,56.5,46.4,29.69,SSW,203,4.0,7.8,69,0.00,,,0.00,WUHU216HW,2013-04-01 17:29:00,
2013-04-01 13:34:00,56.3,46.3,29.69,WSW,248,5.1,7.8,69,0.00,,,0.00,WUHU216HW,2013-04-01 17:34:00,
2013-04-01 13:39:00,56.5,46.4,29.69,SSW,203,2.5,7.6,69,0.00,,,0.00,WUHU216HW,2013-04-01 17:39:00,
2013-04-01 13:44:00,56.9,46.5,29.69,WNW,293,6.7,7.6,68,0.00,,,0.00,WUHU216HW,2013-04-01 17:44:00,
2013-04-01 13:49:00,56.9,46.5,29.69,SW,225,2.7,7.2,68,0.00,,,0.00,WUHU216HW,2013-04-01 17:49:00,
2013-04-01 13:54:00,57.6,46.7,29.69,West,270,4.0,7.2,67,0.00,,,0.00,WUHU216HW,2013-04-01 17:54:00,
2013-04-01 13:59:00,58.1,46.8,29.69,South,180,4.3,7.2,66,0.00,,,0.00,WUHU216HW,2013-04-01 17:59:00,
2013-04-01 14:04:00,58.1,46.0,29.69,South,180,3.4,7.2,64,0.00,,,0.00,WUHU216HW,2013-04-01 18:04:00,
2013-04-01 14:09:00,57.6,45.9,29.69,SW,225,4.9,7.6,65,0.01,,,0.01,WUHU216HW,2013-04-01 18:09:00,
2013-04-01 14:14:00,57.4,46.1,29.69,SW,225,4.3,7.6,66,0.01,,,0.01,WUHU216HW,2013-04-01 18:14:00,
2013-04-01 14:19:00,57.4,46.1,29.69,South,180,3.4,7.6,66,0.01,,,0.01,WUHU216HW,2013-04-01 18:19:00,
2013-04-01 14:24:00,57.6,46.7,29.69,East,90,2.9,6.5,67,0.01,,,0.01,WUHU216HW,2013-04-01 18:24:00,
2013-04-01 14:29:00,57.4,46.1,29.68,SSE,158,2.7,8.9,66,0.01,,,0.01,WUHU216HW,2013-04-01 18:29:00,
2013-04-01 14:34:00,57.2,46.4,29.69,SSE,158,2.7,8.9,67,0.01,,,0.01,WUHU216HW,2013-04-01 18:34:00,
2013-04-01 14:39:00,57.4,46.5,29.69,South,180,3.4,7.2,67,0.01,,,0.01,WUHU216HW,2013-04-01 18:39:00,
2013-04-01 14:44:00,58.1,47.3,29.68,SW,225,6.3,7.2,67,0.01,,,0.01,WUHU216HW,2013-04-01 18:44:00,
2013-04-01 14:49:00,58.9,47.1,29.69,WSW,248,2.5,6.5,65,0.01,,,0.01,WUHU216HW,2013-04-01 18:49:00,
2013-04-01 14:54:00,59.4,47.2,29.68,SW,225,4.5,7.4,64,0.01,,,0.01,WUHU216HW,2013-04-01 18:54:00,
2013-04-01 14:59:00,59.6,47.0,29.68,SSW,203,2.0,8.9,63,0.01,,,0.01,WUHU216HW,2013-04-01 18:59:00,
2013-04-01 15:04:00,59.0,46.5,29.68,SSE,158,4.7,8.9,63,0.01,,,0.01,WUHU216HW,2013-04-01 19:04:00,
2013-04-01 15:09:00,58.7,46.5,29.67,SW,225,7.2,8.9,64,0.00,,,0.01,WUHU216HW,2013-04-01 19:09:00,
2013-04-01 15:14:00,58.0,46.3,29.67,WSW,248,2.9,9.8,65,0.00,,,0.01,WUHU216HW,2013-04-01 19:14:00,
2013-04-01 15:19:00,57.2,46.4,29.67,WSW,248,3.4,9.8,67,0.00,,,0.01,WUHU216HW,2013-04-01 19:19:00,
2013-04-01 15:24:00,57.2,46.7,29.66,West,270,6.5,6.5,68,0.00,,,0.01,WUHU216HW,2013-04-01 19:24:00,
2013-04-01 15:29:00,56.9,46.8,29.66,SW,225,6.9,9.2,69,0.00,,,0.01,WUHU216HW,2013-04-01 19:29:00,
2013-04-01 15:34:00,56.3,46.7,29.66,SSE,158,5.1,9.2,70,0.00,,,0.01,WUHU216HW,2013-04-01 19:34:00,
2013-04-01 15:39:00,55.8,47.3,29.65,SW,225,6.0,8.5,73,0.00,,,0.01,WUHU216HW,2013-04-01 19:39:00,
2013-04-01 15:44:00,55.4,46.9,29.65,SSE,158,4.0,9.8,73,0.00,,,0.01,WUHU216HW,2013-04-01 19:44:00,
2013-04-01 15:49:00,55.4,47.3,29.65,South,180,6.3,9.8,74,0.00,,,0.01,WUHU216HW,2013-04-01 19:49:00,
2013-04-01 15:54:00,56.0,47.4,29.65,SSE,158,3.4,8.5,73,0.00,,,0.01,WUHU216HW,2013-04-01 19:54:00,
2013-04-01 15:59:00,55.8,47.3,29.67,South,180,4.3,7.6,73,0.00,,,0.01,WUHU216HW,2013-04-01 19:59:00,
2013-04-01 16:04:00,55.4,47.3,29.66,WSW,248,3.8,6.9,74,0.00,,,0.01,WUHU216HW,2013-04-01 20:04:00,
2013-04-01 16:09:00,54.9,46.7,29.66,SSW,203,5.6,8.3,74,0.00,,,0.01,WUHU216HW,2013-04-01 20:09:00,
2013-04-01 16:14:00,54.2,46.5,29.66,SSW,203,5.4,8.3,75,0.00,,,0.01,WUHU216HW,2013-04-01 20:14:00,
2013-04-01 16:19:00,53.5,46.4,29.67,SW,225,5.1,7.4,77,0.00,,,0.01,WUHU216HW,2013-04-01 20:19:00,
2013-04-01 16:24:00,53.3,46.6,29.66,SW,225,5.4,8.9,78,0.00,,,0.01,WUHU216HW,2013-04-01 20:24:00,
2013-04-01 16:29:00,53.1,46.4,29.66,NW,315,2.9,8.9,78,0.00,,,0.01,WUHU216HW,2013-04-01 20:29:00,
2013-04-01 16:34:00,53.3,47.0,29.66,WSW,248,4.7,7.6,79,0.00,,,0.01,WUHU216HW,2013-04-01 20:34:00,
2013-04-01 16:39:00,53.3,47.3,29.66,SW,225,6.9,8.5,80,0.00,,,0.01,WUHU216HW,2013-04-01 20:39:00,
2013-04-01 16:44:00,53.3,47.3,29.68,WSW,248,7.4,8.5,80,0.00,,,0.01,WUHU216HW,2013-04-01 20:44:00,
2013-04-01 16:49:00,53.5,48.2,29.69,West,270,7.8,13.6,82,0.01,,,0.02,WUHU216HW,2013-04-01 20:49:00,
2013-04-01 16:54:00,53.5,48.2,29.70,West,270,5.1,13.6,82,0.02,,,0.03,WUHU216HW,2013-04-01 20:54:00,
2013-04-01 16:59:00,53.1,48.1,29.70,WSW,248,4.3,10.7,83,0.02,,,0.03,WUHU216HW,2013-04-01 20:59:00,
2013-04-01 17:04:00,53.1,47.4,29.70,WNW,293,2.7,5.4,81,0.02,,,0.03,WUHU216HW,2013-04-01 21:04:00,
2013-04-01 17:09:00,53.6,45.9,29.70,WSW,248,4.0,8.1,75,0.02,,,0.03,WUHU216HW,2013-04-01 21:09:00,
2013-04-01 17:14:00,54.0,45.2,29.71,NNW,338,5.8,10.7,72,0.02,,,0.03,WUHU216HW,2013-04-01 21:14:00,
2013-04-01 17:19:00,54.0,44.1,29.71,WNW,293,4.3,10.7,69,0.02,,,0.03,WUHU216HW,2013-04-01 21:19:00,
2013-04-01 17:24:00,53.6,43.3,29.72,NW,315,4.9,11.4,68,0.02,,,0.03,WUHU216HW,2013-04-01 21:24:00,
2013-04-01 17:29:00,53.6,42.5,29.73,NNW,338,8.1,11.4,66,0.02,,,0.03,WUHU216HW,2013-04-01 21:29:00,
2013-04-01 17:34:00,53.3,42.6,29.73,NW,315,3.8,10.5,67,0.02,,,0.03,WUHU216HW,2013-04-01 21:34:00,
2013-04-01 17:39:00,52.7,42.9,29.74,NNW,338,4.5,10.5,69,0.02,,,0.03,WUHU216HW,2013-04-01 21:39:00,
2013-04-01 18:41:00,50.0,42.0,29.76,NNW,338,0.2,0.2,74,0.01,,,0.03,WUHU216HW,2013-04-01 22:41:00,
2013-04-01 18:46:00,50.0,41.7,29.76,NNW,338,0.4,2.2,73,0.00,,,0.05,WUHU216HW,2013-04-01 22:46:00,
2013-04-01 18:47:00,50.0,41.7,29.76,SSE,158,0.7,2.2,73,0.00,,,0.05,WUHU216HW,2013-04-01 22:47:00,
2013-04-01 18:51:00,49.9,41.5,29.77,NNW,338,2.7,4.3,73,0.00,,,0.05,WUHU216HW,2013-04-01 22:51:00,
2013-04-01 18:52:00,49.9,41.5,29.77,NNW,338,2.7,4.3,73,0.00,,,0.05,WUHU216HW,2013-04-01 22:52:00,
2013-04-01 18:57:00,49.7,41.3,29.77,WNW,293,4.0,4.3,73,0.00,,,0.05,WUHU216HW,2013-04-01 22:57:00,
2013-04-01 19:02:00,49.3,41.0,29.78,NW,315,1.1,4.0,73,0.00,,,0.05,WUHU216HW,2013-04-01 23:02:00,
2013-04-01 19:07:00,49.3,41.0,29.78,West,270,0.4,3.1,73,0.00,,,0.05,WUHU216HW,2013-04-01 23:07:00,
2013-04-01 19:08:00,49.3,41.0,29.78,West,270,1.8,3.1,73,0.00,,,0.05,WUHU216HW,2013-04-01 23:08:00,
2013-04-01 19:12:00,49.3,41.3,29.78,SSW,203,0.9,2.2,74,0.00,,,0.05,WUHU216HW,2013-04-01 23:12:00,
2013-04-01 19:13:00,49.3,41.3,29.78,WNW,293,1.8,2.2,74,0.00,,,0.05,WUHU216HW,2013-04-01 23:13:00,
2013-04-01 19:17:00,49.3,41.3,29.78,NW,315,1.1,2.2,74,0.00,,,0.05,WUHU216HW,2013-04-01 23:17:00,
2013-04-01 19:18:00,49.3,41.3,29.78,NNW,338,0.4,2.2,74,0.00,,,0.05,WUHU216HW,2013-04-01 23:18:00,
2013-04-01 19:22:00,49.1,40.8,29.79,West,270,0.4,2.0,73,0.00,,,0.05,WUHU216HW,2013-04-01 23:22:00,
2013-04-01 19:23:00,49.1,40.8,29.79,NW,315,0.9,2.0,73,0.00,,,0.05,WUHU216HW,2013-04-01 23:23:00,
2013-04-01 19:24:00,49.1,40.8,29.78,WNW,293,0.4,1.6,73,0.00,,,0.05,WUHU216HW,2013-04-01 23:24:00,
2013-04-01 19:28:00,49.1,40.8,29.78,NNW,338,0.4,2.2,73,0.00,,,0.05,WUHU216HW,2013-04-01 23:28:00,
2013-04-01 19:29:00,49.0,40.6,29.78,NW,315,1.6,2.2,73,0.00,,,0.05,WUHU216HW,2013-04-01 23:29:00,
2013-04-01 19:33:00,49.0,40.6,29.78,NW,315,0.7,2.2,73,0.00,,,0.05,WUHU216HW,2013-04-01 23:33:00,
2013-04-01 19:34:00,49.0,40.6,29.78,West,270,1.6,2.5,73,0.00,,,0.05,WUHU216HW,2013-04-01 23:34:00,
2013-04-01 19:38:00,49.0,40.6,29.78,NW,315,0.7,2.5,73,0.00,,,0.05,WUHU216HW,2013-04-01 23:38:00,
2013-04-01 19:39:00,49.0,40.6,29.78,WNW,293,1.8,2.5,73,0.00,,,0.05,WUHU216HW,2013-04-01 23:39:00,
2013-04-01 19:43:00,48.8,39.8,29.78,NW,315,2.2,4.3,71,0.00,,,0.05,WUHU216HW,2013-04-01 23:43:00,
2013-04-01 19:44:00,48.8,39.8,29.78,NNW,338,1.6,4.3,71,0.00,,,0.05,WUHU216HW,2013-04-01 23:44:00,
2013-04-01 19:48:00,48.8,39.4,29.79,NNW,338,0.7,4.7,70,0.00,,,0.05,WUHU216HW,2013-04-01 23:48:00,
2013-04-01 19:49:00,48.8,39.4,29.79,NW,315,2.0,4.7,70,0.00,,,0.05,WUHU216HW,2013-04-01 23:49:00,
2013-04-01 19:53:00,48.6,37.7,29.79,NNW,338,5.4,5.4,66,0.00,,,0.05,WUHU216HW,2013-04-01 23:53:00,
2013-04-01 19:54:00,48.6,37.7,29.79,West,270,1.6,5.4,66,0.00,,,0.05,WUHU216HW,2013-04-01 23:54:00,
2013-04-01 19:58:00,48.6,37.4,29.80,WNW,293,2.9,5.4,65,0.00,,,0.05,WUHU216HW,2013-04-01 23:58:00,
2013-04-01 19:59:00,48.6,37.0,29.80,NW,315,3.4,5.4,64,0.00,,,0.05,WUHU216HW,2013-04-01 23:59:00,
2013-04-01 20:03:00,48.6,36.5,29.80,NNW,338,1.3,5.1,63,0.00,,,0.05,WUHU216HW,2013-04-02 00:03:00,
2013-04-01 20:04:00,48.6,36.5,29.80,NW,315,3.4,5.1,63,0.00,,,0.05,WUHU216HW,2013-04-02 00:04:00,
2013-04-01 20:08:00,48.6,35.8,29.81,West,270,2.9,6.9,61,0.00,,,0.05,WUHU216HW,2013-04-02 00:08:00,
2013-04-01 20:09:00,48.6,35.8,29.81,West,270,2.9,6.9,61,0.00,,,0.05,WUHU216HW,2013-04-02 00:09:00,
2013-04-01 20:14:00,48.4,36.4,29.81,WNW,293,2.0,6.9,63,0.00,,,0.05,WUHU216HW,2013-04-02 00:14:00,
2013-04-01 20:15:00,48.2,36.3,29.81,NW,315,1.6,6.9,63,0.00,,,0.05,WUHU216HW,2013-04-02 00:15:00,
2013-04-01 20:19:00,48.1,36.1,29.82,NNE,23,1.6,3.8,63,0.00,,,0.05,WUHU216HW,2013-04-02 00:19:00,
2013-04-01 20:20:00,48.1,35.3,29.82,North,0,2.5,3.4,61,0.00,,,0.05,WUHU216HW,2013-04-02 00:20:00,
2013-04-01 20:24:00,47.9,35.1,29.83,West,270,2.2,3.4,61,0.00,,,0.05,WUHU216HW,2013-04-02 00:24:00,
2013-04-01 20:25:00,47.9,35.5,29.82,WNW,293,2.0,3.4,62,0.00,,,0.05,WUHU216HW,2013-04-02 00:25:00,
2013-04-01 20:29:00,47.7,35.4,29.83,WSW,248,1.3,4.9,62,0.00,,,0.05,WUHU216HW,2013-04-02 00:29:00,
2013-04-01 20:30:00,47.7,35.4,29.83,NW,315,2.7,4.9,62,0.00,,,0.05,WUHU216HW,2013-04-02 00:30:00,
2013-04-01 20:34:00,47.5,34.7,29.83,NW,315,3.1,5.1,61,0.00,,,0.05,WUHU216HW,2013-04-02 00:34:00,
2013-04-01 20:35:00,47.5,34.7,29.83,West,270,4.7,5.1,61,0.00,,,0.05,WUHU216HW,2013-04-02 00:35:00,
2013-04-01 20:39:00,47.3,34.6,29.83,West,270,0.4,5.1,61,0.00,,,0.05,WUHU216HW,2013-04-02 00:39:00,
2013-04-01 20:40:00,47.3,34.6,29.83,West,270,0.4,5.1,61,0.00,,,0.05,WUHU216HW,2013-04-02 00:40:00,
2013-04-01 20:41:00,47.5,34.7,29.83,SSW,203,2.7,5.1,61,0.00,,,0.05,WUHU216HW,2013-04-02 00:41:00,
2013-04-01 20:44:00,47.2,34.4,29.84,NW,315,1.6,4.7,61,0.00,,,0.05,WUHU216HW,2013-04-02 00:44:00,
2013-04-01 20:45:00,47.2,34.4,29.84,West,270,1.8,4.7,61,0.00,,,0.05,WUHU216HW,2013-04-02 00:45:00,
2013-04-01 20:46:00,47.2,34.4,29.84,NNW,338,3.4,4.7,61,0.00,,,0.05,WUHU216HW,2013-04-02 00:46:00,
2013-04-01 20:50:00,47.0,33.4,29.84,West,270,3.6,5.4,59,0.00,,,0.05,WUHU216HW,2013-04-02 00:50:00,
2013-04-01 20:52:00,47.0,33.4,29.84,NW,315,3.6,5.4,59,0.00,,,0.05,WUHU216HW,2013-04-02 00:52:00,
2013-04-01 20:55:00,46.8,33.7,29.84,SSW,203,1.1,5.4,60,0.00,,,0.05,WUHU216HW,2013-04-02 00:55:00,
2013-04-01 20:57:00,46.8,32.8,29.84,NW,315,3.4,7.2,58,0.00,,,0.05,WUHU216HW,2013-04-02 00:57:00,
2013-04-01 21:00:00,46.8,32.8,29.84,North,0,4.5,7.2,58,0.00,,,0.05,WUHU216HW,2013-04-02 01:00:00,
2013-04-01 21:03:00,46.6,32.1,29.84,WNW,293,8.5,8.5,57,0.00,,,0.05,WUHU216HW,2013-04-02 01:03:00,
2013-04-01 21:05:00,46.6,32.1,29.83,WNW,293,3.4,8.5,57,0.00,,,0.05,WUHU216HW,2013-04-02 01:05:00,
2013-04-01 21:06:00,46.4,31.1,29.83,NW,315,3.1,8.5,55,0.00,,,0.05,WUHU216HW,2013-04-02 01:06:00,
2013-04-01 21:08:00,46.4,31.5,29.83,NNW,338,2.5,8.9,56,0.00,,,0.05,WUHU216HW,2013-04-02 01:08:00,
2013-04-01 21:10:00,46.4,30.6,29.83,NW,315,9.6,9.6,54,0.00,,,0.05,WUHU216HW,2013-04-02 01:10:00,
2013-04-01 21:11:00,46.4,30.6,29.83,West,270,4.7,9.6,54,0.00,,,0.05,WUHU216HW,2013-04-02 01:11:00,
2013-04-01 21:13:00,46.4,31.1,29.83,NNW,338,6.9,9.6,55,0.00,,,0.05,WUHU216HW,2013-04-02 01:13:00,
2013-04-01 21:15:00,46.4,31.1,29.83,WSW,248,4.7,9.6,55,0.00,,,0.05,WUHU216HW,2013-04-02 01:15:00,
2013-04-01 21:16:00,46.4,31.1,29.83,NNW,338,5.1,9.6,55,0.00,,,0.05,WUHU216HW,2013-04-02 01:16:00,
2013-04-01 21:17:00,46.3,30.9,29.83,NW,315,4.7,9.6,55,0.00,,,0.05,WUHU216HW,2013-04-02 01:17:00,
2013-04-01 21:18:00,46.3,30.4,29.83,NNW,338,7.4,9.6,54,0.00,,,0.05,WUHU216HW,2013-04-02 01:18:00,
2013-04-01 21:20:00,46.1,30.7,29.83,NNW,338,5.4,9.6,55,0.00,,,0.05,WUHU216HW,2013-04-02 01:20:00,
2013-04-01 21:21:00,46.1,30.2,29.84,NNW,338,5.4,7.4,54,0.00,,,0.05,WUHU216HW,2013-04-02 01:21:00,
2013-04-01 21:23:00,46.1,29.8,29.84,NW,315,6.3,9.8,53,0.00,,,0.05,WUHU216HW,2013-04-02 01:23:00,
2013-04-01 21:25:00,46.1,29.3,29.84,West,270,4.7,9.8,52,0.00,,,0.05,WUHU216HW,2013-04-02 01:25:00,
2013-04-01 21:27:00,46.1,29.3,29.84,WSW,248,6.0,9.8,52,0.00,,,0.05,WUHU216HW,2013-04-02 01:27:00,
2013-04-01 21:28:00,46.1,29.8,29.84,WNW,293,5.8,9.8,53,0.00,,,0.05,WUHU216HW,2013-04-02 01:28:00,
2013-04-01 21:30:00,45.9,29.3,29.84,North,0,3.4,9.8,52,0.00,,,0.05,WUHU216HW,2013-04-02 01:30:00,
2013-04-01 21:32:00,45.9,29.3,29.84,North,0,7.8,9.4,52,0.00,,,0.05,WUHU216HW,2013-04-02 01:32:00,
2013-04-01 21:33:00,45.9,29.7,29.85,NW,315,6.0,9.4,53,0.00,,,0.05,WUHU216HW,2013-04-02 01:33:00,
2013-04-01 21:35:00,45.9,29.3,29.85,West,270,3.1,9.4,52,0.00,,,0.05,WUHU216HW,2013-04-02 01:35:00,
2013-04-01 21:37:00,45.7,29.1,29.85,NW,315,3.8,9.4,52,0.00,,,0.05,WUHU216HW,2013-04-02 01:37:00,
2013-04-01 21:38:00,45.7,29.1,29.85,NNW,338,1.6,9.4,52,0.00,,,0.05,WUHU216HW,2013-04-02 01:38:00,
2013-04-01 21:40:00,45.7,28.6,29.86,NNW,338,5.4,7.8,51,0.00,,,0.05,WUHU216HW,2013-04-02 01:40:00,
2013-04-01 21:43:00,45.7,28.6,29.86,West,270,4.7,7.2,51,0.00,,,0.05,WUHU216HW,2013-04-02 01:43:00,
2013-04-01 21:45:00,45.5,28.9,29.86,North,0,2.9,7.2,52,0.00,,,0.05,WUHU216HW,2013-04-02 01:45:00,
2013-04-01 21:48:00,45.4,28.7,29.87,NW,315,3.4,7.2,52,0.00,,,0.05,WUHU216HW,2013-04-02 01:48:00,
2013-04-01 21:51:00,45.4,28.7,29.87,NW,315,3.4,4.9,52,0.00,,,0.05,WUHU216HW,2013-04-02 01:51:00,
2013-04-01 21:53:00,45.2,28.5,29.87,WNW,293,5.1,5.1,52,0.00,,,0.05,WUHU216HW,2013-04-02 01:53:00,
2013-04-01 21:54:00,45.2,29.0,29.87,NW,315,1.8,5.1,53,0.00,,,0.05,WUHU216HW,2013-04-02 01:54:00,
2013-04-01 21:58:00,45.0,28.9,29.87,WSW,248,1.3,5.8,53,0.00,,,0.05,WUHU216HW,2013-04-02 01:58:00,
2013-04-01 21:59:00,45.0,29.4,29.87,WSW,248,0.7,5.8,54,0.00,,,0.05,WUHU216HW,2013-04-02 01:59:00,
2013-04-01 22:03:00,44.8,28.7,29.88,NW,315,1.1,5.8,53,0.00,,,0.05,WUHU216HW,2013-04-02 02:03:00,
2013-04-01 22:04:00,44.6,28.5,29.87,NW,315,0.9,5.8,53,0.00,,,0.05,WUHU216HW,2013-04-02 02:04:00,
2013-04-01 22:08:00,44.5,28.4,29.88,West,270,2.2,2.7,53,0.00,,,0.05,WUHU216HW,2013-04-02 02:08:00,
2013-04-01 22:09:00,44.3,28.2,29.88,West,270,4.9,4.9,53,0.00,,,0.05,WUHU216HW,2013-04-02 02:09:00,
2013-04-01 22:13:00,44.3,28.2,29.88,West,270,0.9,6.7,53,0.00,,,0.05,WUHU216HW,2013-04-02 02:13:00,
2013-04-01 22:14:00,44.5,28.4,29.88,WSW,248,1.3,6.7,53,0.00,,,0.05,WUHU216HW,2013-04-02 02:14:00,
2013-04-01 22:15:00,44.3,27.7,29.88,West,270,3.4,6.7,52,0.00,,,0.05,WUHU216HW,2013-04-02 02:15:00,
2013-04-01 22:18:00,44.3,27.7,29.88,NW,315,5.4,6.7,52,0.00,,,0.05,WUHU216HW,2013-04-02 02:18:00,
2013-04-01 22:19:00,44.3,27.7,29.88,WNW,293,2.9,6.7,52,0.00,,,0.05,WUHU216HW,2013-04-02 02:19:00,
2013-04-01 22:20:00,44.3,27.3,29.88,NNW,338,5.4,6.7,51,0.00,,,0.05,WUHU216HW,2013-04-02 02:20:00,
2013-04-01 22:23:00,44.5,27.0,29.88,NNW,338,4.9,6.0,50,0.00,,,0.05,WUHU216HW,2013-04-02 02:23:00,
2013-04-01 22:24:00,44.5,27.0,29.88,WSW,248,5.1,6.0,50,0.00,,,0.05,WUHU216HW,2013-04-02 02:24:00,
2013-04-01 22:25:00,44.5,27.0,29.88,NNW,338,2.9,6.0,50,0.00,,,0.05,WUHU216HW,2013-04-02 02:25:00,
2013-04-01 22:29:00,44.3,26.8,29.88,NW,315,2.7,6.0,50,0.00,,,0.05,WUHU216HW,2013-04-02 02:29:00,
2013-04-01 22:30:00,44.3,26.8,29.88,NW,315,4.7,6.0,50,0.00,,,0.05,WUHU216HW,2013-04-02 02:30:00,
2013-04-01 22:34:00,44.3,27.3,29.88,North,0,1.6,5.8,51,0.00,,,0.05,WUHU216HW,2013-04-02 02:34:00,
2013-04-01 22:35:00,44.1,27.2,29.88,North,0,2.2,5.8,51,0.00,,,0.05,WUHU216HW,2013-04-02 02:35:00,
2013-04-01 22:36:00,44.1,27.2,29.88,WNW,293,4.3,5.8,51,0.00,,,0.05,WUHU216HW,2013-04-02 02:36:00,
2013-04-01 22:39:00,43.9,27.0,29.88,West,270,4.0,4.9,51,0.00,,,0.05,WUHU216HW,2013-04-02 02:39:00,
2013-04-01 22:40:00,43.9,27.0,29.88,NW,315,4.7,4.9,51,0.00,,,0.05,WUHU216HW,2013-04-02 02:40:00,
2013-04-01 22:41:00,43.9,26.6,29.88,WNW,293,3.4,4.9,50,0.00,,,0.05,WUHU216HW,2013-04-02 02:41:00,
2013-04-01 22:44:00,43.9,27.0,29.88,NNW,338,2.5,4.9,51,0.00,,,0.05,WUHU216HW,2013-04-02 02:44:00,
2013-04-01 22:45:00,43.9,27.0,29.88,WNW,293,2.7,4.9,51,0.00,,,0.05,WUHU216HW,2013-04-02 02:45:00,
2013-04-01 22:46:00,43.9,27.0,29.88,WNW,293,2.2,6.0,51,0.00,,,0.05,WUHU216HW,2013-04-02 02:46:00,
2013-04-01 22:49:00,43.7,27.7,29.88,NW,315,2.5,6.0,53,0.00,,,0.05,WUHU216HW,2013-04-02 02:49:00,
2013-04-01 22:50:00,43.6,27.6,29.88,West,270,0.7,6.0,53,0.00,,,0.05,WUHU216HW,2013-04-02 02:50:00,
2013-04-01 22:51:00,43.6,27.1,29.88,WNW,293,2.5,6.0,52,0.00,,,0.05,WUHU216HW,2013-04-02 02:51:00,
2013-04-01 22:54:00,43.6,27.6,29.88,WSW,248,1.3,6.0,53,0.00,,,0.05,WUHU216HW,2013-04-02 02:54:00,
2013-04-01 22:55:00,43.4,27.4,29.89,West,270,1.8,6.0,53,0.00,,,0.05,WUHU216HW,2013-04-02 02:55:00,
2013-04-01 22:56:00,43.4,27.4,29.89,West,270,0.4,3.4,53,0.00,,,0.05,WUHU216HW,2013-04-02 02:56:00,
2013-04-01 22:59:00,43.2,26.7,29.89,West,270,0.2,4.0,52,0.00,,,0.05,WUHU216HW,2013-04-02 02:59:00,
2013-04-01 23:00:00,43.2,27.2,29.88,WSW,248,0.0,4.0,53,0.00,,,0.05,WUHU216HW,2013-04-02 03:00:00,
2013-04-01 23:01:00,43.0,27.0,29.89,ESE,113,1.1,4.0,53,0.00,,,0.05,WUHU216HW,2013-04-02 03:01:00,
2013-04-01 23:02:00,43.0,27.0,29.89,SW,225,0.2,4.0,53,0.00,,,0.05,WUHU216HW,2013-04-02 03:02:00,
2013-04-01 23:04:00,42.8,26.8,29.89,WSW,248,0.7,4.0,53,0.00,,,0.05,WUHU216HW,2013-04-02 03:04:00,
2013-04-01 23:05:00,42.8,26.8,29.89,NNW,338,0.4,4.0,53,0.00,,,0.05,WUHU216HW,2013-04-02 03:05:00,
2013-04-01 23:07:00,42.8,26.8,29.89,West,270,0.2,4.0,53,0.00,,,0.05,WUHU216HW,2013-04-02 03:07:00,
2013-04-01 23:09:00,42.7,26.6,29.89,WNW,293,2.5,2.5,53,0.00,,,0.05,WUHU216HW,2013-04-02 03:09:00,
2013-04-01 23:10:00,42.7,26.6,29.89,ENE,68,2.5,2.5,53,0.00,,,0.05,WUHU216HW,2013-04-02 03:10:00,
2013-04-01 23:12:00,42.5,26.6,29.89,WSW,248,0.4,2.5,53,0.00,,,0.05,WUHU216HW,2013-04-02 03:12:00,
2013-04-01 23:13:00,42.5,26.6,29.89,NNW,338,2.0,2.5,53,0.00,,,0.05,WUHU216HW,2013-04-02 03:13:00,
2013-04-01 23:14:00,42.3,26.4,29.89,NNW,338,1.1,3.6,53,0.00,,,0.05,WUHU216HW,2013-04-02 03:14:00,
2013-04-01 23:15:00,42.5,26.6,29.89,NW,315,2.0,3.6,53,0.00,,,0.05,WUHU216HW,2013-04-02 03:15:00,
2013-04-01 23:17:00,42.3,25.9,29.89,WNW,293,1.6,3.6,52,0.00,,,0.05,WUHU216HW,2013-04-02 03:17:00,
2013-04-01 23:18:00,42.3,25.9,29.89,West,270,1.6,3.6,52,0.00,,,0.05,WUHU216HW,2013-04-02 03:18:00,
2013-04-01 23:20:00,42.3,26.4,29.89,West,270,1.8,3.6,53,0.00,,,0.05,WUHU216HW,2013-04-02 03:20:00,
2013-04-01 23:22:00,42.3,26.4,29.90,NNW,338,3.8,4.0,53,0.00,,,0.05,WUHU216HW,2013-04-02 03:22:00,
2013-04-01 23:23:00,42.3,26.4,29.90,NW,315,3.8,4.0,53,0.00,,,0.05,WUHU216HW,2013-04-02 03:23:00,
2013-04-01 23:25:00,42.3,26.7,29.90,NW,315,5.8,5.8,54,0.00,,,0.05,WUHU216HW,2013-04-02 03:25:00,
2013-04-01 23:26:00,42.1,25.8,29.90,NW,315,7.6,7.6,52,0.00,,,0.05,WUHU216HW,2013-04-02 03:26:00,
2013-04-01 23:28:00,42.1,25.8,29.90,NNW,338,4.5,7.6,52,0.00,,,0.05,WUHU216HW,2013-04-02 03:28:00,
2013-04-01 23:30:00,42.1,24.8,29.90,NNW,338,4.9,7.8,50,0.00,,,0.05,WUHU216HW,2013-04-02 03:30:00,
2013-04-01 23:31:00,42.3,25.0,29.91,NW,315,4.9,7.8,50,0.00,,,0.05,WUHU216HW,2013-04-02 03:31:00,
2013-04-01 23:33:00,42.1,24.3,29.90,NNW,338,4.7,7.8,49,0.00,,,0.05,WUHU216HW,2013-04-02 03:33:00,
2013-04-01 23:35:00,42.1,24.3,29.91,NW,315,6.0,7.8,49,0.00,,,0.05,WUHU216HW,2013-04-02 03:35:00,
2013-04-01 23:37:00,42.1,24.3,29.91,North,0,2.9,7.8,49,0.00,,,0.05,WUHU216HW,2013-04-02 03:37:00,
2013-04-01 23:38:00,42.1,24.3,29.91,ENE,68,4.5,7.8,49,0.00,,,0.05,WUHU216HW,2013-04-02 03:38:00,
2013-04-01 23:41:00,41.9,24.1,29.91,NNW,338,7.6,8.5,49,0.00,,,0.05,WUHU216HW,2013-04-02 03:41:00,
2013-04-01 23:42:00,41.9,24.1,29.91,NW,315,4.7,8.5,49,0.00,,,0.05,WUHU216HW,2013-04-02 03:42:00,
2013-04-01 23:43:00,41.9,24.1,29.91,NNW,338,9.2,9.2,49,0.00,,,0.05,WUHU216HW,2013-04-02 03:43:00,
2013-04-01 23:46:00,41.8,23.9,29.91,NW,315,4.9,9.2,49,0.00,,,0.05,WUHU216HW,2013-04-02 03:46:00,
2013-04-01 23:47:00,41.8,23.9,29.91,WNW,293,4.0,9.2,49,0.00,,,0.05,WUHU216HW,2013-04-02 03:47:00,
2013-04-01 23:48:00,41.8,23.9,29.91,NW,315,6.9,9.2,49,0.00,,,0.05,WUHU216HW,2013-04-02 03:48:00,
2013-04-01 23:51:00,41.6,24.3,29.91,NW,315,3.4,9.2,50,0.00,,,0.05,WUHU216HW,2013-04-02 03:51:00,
2013-04-01 23:53:00,41.4,24.1,29.91,NW,315,5.1,9.2,50,0.00,,,0.05,WUHU216HW,2013-04-02 03:53:00,
2013-04-01 23:54:00,41.4,24.1,29.91,WNW,293,5.4,9.2,50,0.00,,,0.05,WUHU216HW,2013-04-02 03:54:00,
2013-04-01 23:56:00,41.4,24.1,29.91,WNW,293,3.6,8.1,50,0.00,,,0.05,WUHU216HW,2013-04-02 03:56:00,
2013-04-01 23:58:00,41.2,23.9,29.91,WNW,293,4.0,8.1,50,0.00,,,0.05,WUHU216HW,2013-04-02 03:58:00,
2013-04-01 23:59:00,41.2,23.9,29.91,NW,315,7.6,8.1,50,0.00,,,0.05,WUHU216HW,2013-04-02 03:59:00,